Albert, New Mexico
Current Conditions -  °F | °C
As of 3:53 AM on Sunday 23 Nov 2014 (Local Time) from KTCC Reporting Station
NA  
Wind Chill: 41°   Ceiling: NA
Heat Index: 47°   Visibility: 10mi
Dew Point: 19°   Wind: 13mph
Humidity: 33%   Direction: 250°WSW
Pressure: 29.59"   Gusts: NA
Location:  35.7181°N, 103.591°W
Report Text: KTCC 231053Z AUTO 25011KT 10SM 08/M07 A2959 RMK AO2 SLP983 T00831072
Loading
Personal Weather Stations






























Interactive Weather Map New forecast layout! Learn more

10-Day Weather Forecast

Advertisements
Track Severe Weather on mobile